KRWL/RWL METAR and TAF weather

Enter ICAO airport designator
Station Type Date Time Source
KRWL METAR 2021/09/19 14:53 UTC NOAA

KRWL 191453Z AUTO 21025G36KT 10SM CLR 15/07 A3004 RMK AO2 PK WND 20036/1450 SLP089 T01500067 58006 $


Station Type Date Time Source
KRWL Decoded METAR 2021/09/19 14:53 UTC NOAA

RAWLINS MUNICIPAL AIRPORT, WY, United States (KRWL) 41-48N 107-12W
Sep 19, 2021 - 10:53 AM EDT / 2021.09.19 1453 UTC
Wind: from the SSW (210 degrees) at 29 MPH (25 KT) gusting to 41 MPH (36 KT):0
Visibility: 10 mile(s):0
Sky conditions: clear
Temperature: 59.0 F (15.0 C)
Dew Point: 44.1 F (6.7 C)
Relative Humidity: 57%
Pressure (altimeter): 30.04 in. Hg (1017 hPa)
Pressure tendency: 0.02 inches (0.6 hPa) lower than three hours ago
ob: KRWL 191453Z AUTO 21025G36KT 10SM CLR 15/07 A3004 RMK AO2 PK WND 20036/1450 SLP089 T01500067 58006
cycle: 15

Station Type Date Time Source
KRWL TAF 2021/09/19 12:30 UTC NOAA

TAF KRWL 191128Z 1912/2012 23023G35KT P6SM FEW120
FM191500 24030G42KT P6SM SCT080
FM200100 28025G35KT P6SM VCSH BKN060

Example: see airport list